FlightSpace

Additional description
No additional description
Departure
  • Poznań-Ławica Airport (EPPO)
  • Local date: Jun 20, 2017
  • Start-up time: 08:48:06 CEST (UTC +02:00)
  • Block off time: 08:48:06 CEST (UTC +02:00)
  • Take off time: 09:05:15 CEST (UTC +02:00)
  • METAR:
    EPPO 200800Z 22006KT 200V280 CAVOK 26/17 Q1014
Destination
  • Bydgoszcz Ignacy Jan Paderewski Airport (EPBY)
  • Local date: Jun 20, 2017
  • Shut-down time: 09:42:29 CEST (UTC +02:00)
  • Block on time: 09:42:29 CEST (UTC +02:00)
  • Landing time: 09:33:45 CEST (UTC +02:00)
  • METAR:
    EPBY 200730Z 24011KT CAVOK 26/16 Q1013=

Flight summary
Hobbs time: 00:54 Block time: 00:54 Flight time: 00:28
Distance: 78 NM Max altitude/level: 10340 ft Number of Landings: 1
Fuel burned: 41.12 l Average fuel consumption: 45.37 l/h
Comments